createdAt,value
2019-01-25T00:00:48.805Z,22.00
2019-01-25T00:03:19.728Z,22.47
2019-01-25T00:05:50.717Z,22.40
2019-01-25T00:08:21.416Z,22.07
2019-01-25T00:10:52.024Z,22.40
2019-01-25T00:13:22.952Z,22.63
2019-01-25T00:15:54.034Z,21.73
2019-01-25T00:18:25.156Z,22.30
2019-01-25T00:20:56.141Z,22.17
2019-01-25T00:23:27.622Z,22.17
2019-01-25T00:25:58.926Z,20.80
2019-01-25T00:28:29.938Z,21.27
2019-01-25T00:31:01.027Z,22.50
2019-01-25T00:33:32.047Z,21.73
2019-01-25T00:36:03.409Z,23.45
2019-01-25T00:38:34.828Z,20.65
2019-01-25T00:41:05.870Z,21.42
2019-01-25T00:43:36.835Z,22.10
2019-01-25T00:46:07.650Z,20.90
2019-01-25T00:48:38.199Z,20.77
2019-01-25T00:51:09.080Z,21.53
2019-01-25T00:53:40.144Z,20.53
2019-01-25T00:56:11.639Z,22.07
2019-01-25T00:58:43.414Z,22.07
2019-01-25T01:01:14.993Z,22.93
2019-01-25T01:03:46.590Z,21.37
2019-01-25T01:06:18.170Z,21.70
2019-01-25T01:08:49.289Z,20.80
2019-01-25T01:11:21.933Z,22.30
2019-01-25T01:13:52.962Z,21.87
2019-01-25T01:16:24.537Z,20.60
2019-01-25T01:18:56.839Z,21.97
2019-01-25T01:21:28.515Z,20.83
2019-01-25T01:23:59.286Z,20.70
2019-01-25T01:26:30.450Z,22.77
2019-01-25T01:29:01.179Z,22.17
2019-01-25T01:31:32.025Z,22.93
2019-01-25T01:34:03.109Z,21.60
2019-01-25T01:36:34.668Z,22.07
2019-01-25T01:39:08.099Z,22.03
2019-01-25T01:41:40.688Z,21.87
2019-01-25T01:44:12.137Z,22.13
2019-01-25T01:46:43.576Z,21.75
2019-01-25T01:49:15.084Z,22.10
2019-01-25T01:51:46.144Z,20.80
2019-01-25T01:54:17.659Z,21.90
2019-01-25T01:56:49.070Z,20.97
2019-01-25T01:59:20.138Z,20.70
2019-01-25T02:01:51.299Z,22.60
2019-01-25T02:04:22.013Z,20.50
2019-01-25T02:06:53.099Z,22.70
2019-01-25T02:09:24.250Z,23.05
2019-01-25T02:11:55.674Z,22.77
2019-01-25T02:14:26.856Z,22.57
2019-01-25T02:16:59.215Z,21.95
2019-01-25T02:19:29.958Z,22.07
2019-01-25T02:22:01.107Z,23.67
2019-01-25T02:24:32.615Z,21.27
2019-01-25T02:27:04.391Z,22.22
2019-01-25T02:29:35.455Z,22.20
2019-01-25T02:32:06.862Z,22.47
2019-01-25T02:34:37.911Z,21.60
2019-01-25T02:37:09.421Z,23.20
2019-01-25T02:39:40.555Z,21.93
2019-01-25T02:42:13.016Z,21.27
2019-01-25T02:44:44.086Z,21.10
2019-01-25T02:47:15.253Z,21.80
2019-01-25T02:49:46.296Z,21.70
2019-01-25T02:52:17.986Z,21.85
2019-01-25T02:54:48.784Z,22.63
2019-01-25T02:57:19.626Z,21.17
2019-01-25T02:59:50.370Z,22.50
2019-01-25T03:02:21.031Z,22.87
2019-01-25T03:04:51.814Z,22.10
2019-01-25T03:07:22.525Z,22.17
2019-01-25T03:09:53.333Z,22.73
2019-01-25T03:12:24.014Z,22.30
2019-01-25T03:14:54.742Z,22.50
2019-01-25T03:17:25.898Z,22.90
2019-01-25T03:19:57.194Z,22.17
2019-01-25T03:22:27.927Z,23.32
2019-01-25T03:24:58.678Z,22.77
2019-01-25T03:27:29.460Z,23.10
2019-01-25T03:30:00.457Z,23.20
2019-01-25T03:32:31.390Z,21.30
2019-01-25T03:35:02.980Z,21.23
2019-01-25T03:37:34.099Z,23.83
2019-01-25T03:40:05.994Z,23.50
2019-01-25T03:42:37.434Z,24.10
2019-01-25T03:45:08.945Z,21.30
2019-01-25T03:47:40.404Z,23.90
2019-01-25T03:50:13.716Z,23.40
2019-01-25T03:52:45.206Z,22.93
2019-01-25T03:55:16.381Z,22.63
2019-01-25T03:57:47.445Z,23.47
2019-01-25T04:00:21.525Z,22.90
2019-01-25T04:02:52.681Z,24.83
2019-01-25T04:05:23.423Z,22.17
2019-01-25T04:07:54.151Z,22.90
2019-01-25T04:10:27.045Z,23.50
2019-01-25T04:12:57.697Z,22.57
2019-01-25T04:15:31.701Z,24.12
2019-01-25T04:18:02.488Z,22.90
2019-01-25T04:20:33.158Z,22.90
2019-01-25T04:23:05.134Z,23.67
2019-01-25T04:25:36.244Z,22.83
2019-01-25T04:28:07.194Z,23.20
2019-01-25T04:30:38.249Z,23.47
2019-01-25T04:33:09.006Z,24.77
2019-01-25T04:35:40.072Z,22.63
2019-01-25T04:38:11.499Z,24.95
2019-01-25T04:40:42.648Z,23.60
2019-01-25T04:43:14.127Z,23.33
2019-01-25T04:45:46.499Z,23.83
2019-01-25T04:48:18.462Z,24.07
2019-01-25T04:50:51.541Z,24.50
2019-01-25T04:53:22.563Z,22.90
2019-01-25T04:55:53.727Z,24.55
2019-01-25T04:58:24.830Z,24.00
2019-01-25T05:00:55.915Z,24.18
2019-01-25T05:03:27.369Z,24.70
2019-01-25T05:05:58.432Z,23.92
2019-01-25T05:08:30.198Z,23.97
2019-01-25T05:11:01.645Z,23.73
2019-01-25T05:13:32.916Z,24.10
2019-01-25T05:16:03.899Z,24.37
2019-01-25T05:18:34.945Z,24.63
2019-01-25T05:21:05.697Z,24.97
2019-01-25T05:23:36.782Z,24.72
2019-01-25T05:29:17.840Z,30.60
2019-01-25T05:31:48.590Z,24.47
2019-01-25T05:34:19.624Z,24.33
2019-01-25T05:36:50.524Z,25.20
2019-01-25T05:39:21.320Z,24.25
2019-01-25T05:41:54.538Z,23.80
2019-01-25T05:44:25.455Z,24.93
2019-01-25T05:46:56.238Z,25.13
2019-01-25T05:49:27.589Z,24.87
2019-01-25T05:51:58.669Z,25.23
2019-01-25T05:54:30.056Z,24.55
2019-01-25T05:57:02.145Z,23.73
2019-01-25T05:59:33.253Z,22.93
2019-01-25T06:02:04.487Z,24.43
2019-01-25T06:04:36.574Z,24.03
2019-01-25T06:07:07.748Z,23.37
2019-01-25T06:09:38.921Z,24.57
2019-01-25T06:12:09.951Z,23.47
2019-01-25T06:14:41.022Z,24.97
2019-01-25T06:17:22.246Z,24.27
2019-01-25T06:19:53.242Z,24.17
2019-01-25T06:22:25.147Z,24.87
2019-01-25T06:24:56.523Z,24.77
2019-01-25T06:27:27.856Z,24.10
2019-01-25T06:29:58.940Z,23.92
2019-01-25T06:32:29.959Z,25.30
2019-01-25T06:35:01.039Z,22.98
2019-01-25T06:37:31.790Z,25.10
2019-01-25T06:40:02.542Z,26.07
2019-01-25T06:42:33.347Z,25.50
2019-01-25T06:45:04.093Z,25.37
2019-01-25T06:47:35.099Z,26.00
2019-01-25T06:50:06.751Z,25.07
2019-01-25T06:52:37.780Z,24.82
2019-01-25T06:55:09.272Z,26.00
2019-01-25T06:57:50.571Z,25.37
2019-01-25T07:00:24.510Z,24.23
2019-01-25T07:02:55.969Z,25.30
2019-01-25T07:05:27.113Z,24.27
2019-01-25T07:07:59.502Z,24.75
2019-01-25T07:10:30.552Z,24.30
2019-01-25T07:13:02.472Z,22.80
2019-01-25T07:15:34.486Z,25.03
2019-01-25T07:18:05.241Z,25.17
2019-01-25T07:20:35.946Z,24.73
2019-01-25T07:23:07.141Z,25.13
2019-01-25T07:25:37.850Z,25.53
2019-01-25T07:28:08.958Z,26.20
2019-01-25T07:30:40.063Z,24.97
2019-01-25T07:33:11.369Z,25.43
2019-01-25T07:35:42.767Z,25.73
2019-01-25T07:38:14.209Z,27.60
2019-01-25T07:40:45.391Z,25.70
2019-01-25T07:43:17.117Z,25.97
2019-01-25T07:45:48.707Z,26.50
2019-01-25T07:48:20.985Z,26.37
2019-01-25T07:50:53.353Z,26.17
2019-01-25T07:53:24.783Z,25.55
2019-01-25T07:55:56.646Z,26.05
2019-01-25T07:58:28.262Z,26.27
2019-01-25T08:00:59.413Z,26.23
2019-01-25T08:03:30.555Z,25.43
2019-01-25T08:06:02.012Z,25.43
2019-01-25T08:08:33.606Z,27.07
2019-01-25T08:11:05.745Z,25.88
2019-01-25T08:13:37.365Z,26.83
2019-01-25T08:16:09.725Z,25.60
2019-01-25T08:18:41.068Z,28.03
2019-01-25T08:21:14.211Z,26.87
2019-01-25T08:23:46.421Z,27.60
2019-01-25T08:26:19.708Z,26.37
2019-01-25T08:28:51.448Z,26.97
2019-01-25T08:31:23.165Z,26.17
2019-01-25T08:33:54.266Z,27.90
2019-01-25T08:36:30.225Z,28.83
2019-01-25T08:39:01.374Z,26.07
2019-01-25T08:41:32.206Z,27.37
2019-01-25T08:44:03.246Z,29.50
2019-01-25T08:46:53.708Z,29.47
2019-01-25T08:49:24.805Z,29.03
2019-01-25T08:51:55.860Z,28.03
2019-01-25T08:54:27.575Z,28.33
2019-01-25T08:56:58.993Z,28.00
2019-01-25T08:59:31.771Z,29.63
2019-01-25T09:02:02.897Z,28.43
2019-01-25T09:04:33.959Z,28.17
2019-01-25T09:07:04.948Z,28.32
2019-01-25T09:09:36.207Z,29.63
2019-01-25T09:12:07.300Z,29.27
2019-01-25T09:14:38.347Z,30.17
2019-01-25T09:17:09.467Z,30.07
2019-01-25T09:19:40.437Z,30.43
2019-01-25T09:22:11.194Z,30.73
2019-01-25T09:24:42.286Z,29.67
2019-01-25T09:27:13.367Z,30.12
2019-01-25T09:29:44.414Z,31.03
2019-01-25T09:32:15.872Z,32.25
2019-01-25T09:34:47.257Z,31.50
2019-01-25T09:37:18.624Z,30.20
2019-01-25T09:39:49.449Z,31.23
2019-01-25T09:42:20.529Z,32.83
2019-01-25T09:44:52.270Z,31.33
2019-01-25T09:47:23.547Z,34.13
2019-01-25T09:49:54.661Z,33.57
2019-01-25T09:52:26.609Z,36.20
2019-01-25T09:54:58.189Z,33.07
2019-01-25T09:57:29.907Z,33.13
2019-01-25T10:00:01.559Z,36.40
2019-01-25T10:02:33.050Z,33.30
2019-01-25T10:05:04.267Z,33.30
2019-01-25T10:07:35.989Z,33.87
2019-01-25T10:10:07.582Z,33.73
2019-01-25T10:12:43.458Z,34.70
2019-01-25T10:15:15.584Z,34.47
2019-01-25T10:17:46.295Z,34.53
2019-01-25T10:20:17.473Z,35.63
2019-01-25T10:22:48.977Z,35.45
2019-01-25T10:25:20.546Z,37.53
2019-01-25T10:27:52.451Z,33.98
2019-01-25T10:30:25.325Z,35.23
2019-01-25T10:32:56.769Z,34.83
2019-01-25T10:35:28.085Z,35.97
2019-01-25T10:37:59.587Z,36.68
2019-01-25T10:40:30.707Z,36.87
2019-01-25T10:43:01.839Z,37.05
2019-01-25T10:45:36.481Z,35.93
2019-01-25T10:48:09.193Z,34.03
2019-01-25T10:50:40.227Z,35.53
2019-01-25T10:53:11.605Z,36.33
2019-01-25T10:55:42.345Z,36.63
2019-01-25T10:58:13.168Z,38.33
2019-01-25T11:00:43.895Z,35.20
2019-01-25T11:03:15.386Z,37.87
2019-01-25T11:05:47.036Z,37.83
2019-01-25T11:08:18.334Z,37.80
2019-01-25T11:10:51.190Z,38.25
2019-01-25T11:13:22.556Z,36.93
2019-01-25T11:15:54.204Z,36.03
2019-01-25T11:18:25.855Z,35.67
2019-01-25T11:20:57.524Z,36.50
2019-01-25T11:23:29.014Z,37.23
2019-01-25T11:26:00.425Z,35.97
2019-01-25T11:28:31.548Z,36.43
2019-01-25T11:31:02.917Z,35.23
2019-01-25T11:33:33.941Z,36.40
2019-01-25T11:36:04.591Z,36.70
2019-01-25T11:38:35.324Z,36.93
2019-01-25T11:41:06.420Z,33.28
2019-01-25T11:43:37.762Z,34.47
2019-01-25T11:46:08.810Z,34.63
2019-01-25T11:48:39.890Z,32.00
2019-01-25T11:51:11.155Z,31.77
2019-01-25T11:53:42.179Z,31.83
2019-01-25T11:56:13.279Z,31.97
2019-01-25T11:58:45.046Z,29.80
2019-01-25T12:01:16.124Z,27.47
2019-01-25T12:03:47.238Z,26.73
2019-01-25T12:06:18.756Z,23.57
2019-01-25T12:08:50.120Z,24.03
2019-01-25T12:11:21.127Z,22.83
2019-01-25T12:13:51.864Z,20.37
2019-01-25T12:16:23.274Z,18.47
2019-01-25T12:18:54.491Z,21.57
2019-01-25T12:21:26.138Z,23.03
2019-01-25T12:23:57.171Z,21.97
2019-01-25T12:26:29.343Z,22.10
2019-01-25T12:29:00.769Z,22.10
2019-01-25T12:31:32.535Z,22.27
2019-01-25T12:34:03.910Z,25.87
2019-01-25T12:36:34.976Z,25.40
2019-01-25T12:39:09.445Z,25.07
2019-01-25T12:41:45.342Z,25.47
2019-01-25T12:44:17.058Z,22.47
2019-01-25T12:46:53.402Z,21.03
2019-01-25T12:49:37.732Z,22.27
2019-01-25T12:52:13.085Z,24.43
2019-01-25T12:54:45.275Z,21.87
2019-01-25T12:57:21.197Z,20.32
2019-01-25T13:00:00.792Z,20.68
2019-01-25T13:02:32.309Z,21.33
2019-01-25T13:05:03.681Z,20.73
2019-01-25T13:07:34.716Z,20.72
2019-01-25T13:10:07.890Z,20.23
2019-01-25T13:12:39.695Z,20.60
2019-01-25T13:15:12.664Z,20.13
2019-01-25T13:17:43.752Z,20.70
2019-01-25T13:20:23.500Z,21.03
2019-01-25T13:22:55.196Z,20.10
2019-01-25T13:25:26.705Z,19.07
2019-01-25T13:27:58.678Z,19.23
2019-01-25T13:30:31.988Z,19.67
2019-01-25T13:33:03.598Z,19.30
2019-01-25T13:35:35.416Z,18.92
2019-01-25T13:38:07.719Z,20.72
2019-01-25T13:40:38.724Z,19.23
2019-01-25T13:43:10.140Z,19.00
2019-01-25T13:45:41.261Z,20.20
2019-01-25T13:48:12.784Z,20.90
2019-01-25T13:50:43.827Z,19.77
2019-01-25T13:53:16.206Z,19.87
2019-01-25T13:55:47.244Z,20.90
2019-01-25T13:58:18.883Z,21.33
2019-01-25T14:00:50.360Z,19.03
2019-01-25T14:03:21.509Z,19.50
2019-01-25T14:05:52.676Z,20.60
2019-01-25T14:08:23.792Z,20.20
2019-01-25T14:10:54.860Z,19.37
2019-01-25T14:13:25.961Z,19.93
2019-01-25T14:15:56.912Z,22.27
2019-01-25T14:18:28.076Z,21.55
2019-01-25T14:21:01.881Z,20.73
2019-01-25T14:23:32.970Z,20.87
2019-01-25T14:26:03.997Z,20.83
2019-01-25T14:28:35.420Z,20.80
2019-01-25T14:31:06.859Z,20.53
2019-01-25T14:33:37.906Z,20.80
2019-01-25T14:36:10.828Z,19.23
2019-01-25T14:38:42.859Z,21.57
2019-01-25T14:41:13.935Z,19.73
2019-01-25T14:43:45.341Z,21.10
2019-01-25T14:46:16.373Z,19.93
2019-01-25T14:48:47.391Z,21.30
2019-01-25T14:51:18.132Z,19.23
2019-01-25T14:53:51.041Z,20.32
2019-01-25T14:56:21.978Z,22.00
2019-01-25T14:58:52.758Z,20.53
2019-01-25T15:01:23.395Z,21.63
2019-01-25T15:03:54.021Z,23.10
2019-01-25T15:06:24.955Z,21.73
2019-01-25T15:08:55.700Z,20.57
2019-01-25T15:11:26.555Z,21.62
2019-01-25T15:14:02.281Z,21.57
2019-01-25T15:16:29.656Z,23.27
2019-01-25T15:19:00.978Z,22.97
2019-01-25T15:21:32.149Z,23.40
2019-01-25T15:24:03.650Z,21.93
2019-01-25T15:26:35.099Z,21.60
2019-01-25T15:29:06.228Z,19.87
2019-01-25T15:31:37.354Z,19.37
2019-01-25T15:34:08.364Z,18.97
2019-01-25T15:36:39.644Z,20.07
2019-01-25T15:39:11.702Z,19.17
2019-01-25T15:41:44.039Z,18.17
2019-01-25T15:44:15.025Z,18.92
2019-01-25T15:46:45.840Z,16.80
2019-01-25T15:49:16.506Z,17.13
2019-01-25T15:51:47.567Z,16.87
2019-01-25T15:54:18.232Z,17.83
2019-01-25T15:56:48.975Z,16.90
2019-01-25T15:59:19.798Z,16.87
2019-01-25T16:01:50.838Z,17.57
2019-01-25T16:04:21.579Z,16.70
2019-01-25T16:06:52.953Z,18.33
2019-01-25T16:09:24.267Z,16.43
2019-01-25T16:11:55.198Z,16.27
2019-01-25T16:14:26.098Z,17.23
2019-01-25T16:16:56.875Z,16.97
2019-01-25T16:19:27.644Z,17.43
2019-01-25T16:21:58.751Z,16.87
2019-01-25T16:24:30.045Z,17.77
2019-01-25T16:27:00.804Z,16.67
2019-01-25T16:29:31.572Z,17.67
2019-01-25T16:32:02.202Z,16.43
2019-01-25T16:34:32.838Z,16.00
2019-01-25T16:37:03.500Z,16.47
2019-01-25T16:39:34.140Z,17.00
2019-01-25T16:42:04.742Z,17.00
2019-01-25T16:44:36.398Z,18.17
2019-01-25T16:47:07.833Z,16.67
2019-01-25T16:49:38.447Z,16.63
2019-01-25T16:52:09.456Z,16.33
2019-01-25T16:54:40.559Z,17.80
2019-01-25T16:57:11.351Z,18.27
2019-01-25T16:59:42.060Z,18.03
2019-01-25T17:02:12.763Z,18.33
2019-01-25T17:04:44.621Z,17.12
2019-01-25T17:07:15.744Z,17.03
2019-01-25T17:09:46.388Z,17.83
2019-01-25T17:12:17.091Z,17.20
2019-01-25T17:14:48.109Z,17.00
2019-01-25T17:17:18.834Z,17.23
2019-01-25T17:19:49.515Z,17.33
2019-01-25T17:22:20.592Z,16.05
2019-01-25T17:24:51.567Z,17.43
2019-01-25T17:27:22.301Z,17.93
2019-01-25T17:29:52.896Z,17.57
2019-01-25T17:32:23.470Z,18.67
2019-01-25T17:34:54.056Z,17.90
2019-01-25T17:37:24.858Z,21.87
2019-01-25T17:39:55.827Z,18.43
2019-01-25T17:42:28.166Z,17.27
2019-01-25T17:44:58.932Z,16.93
2019-01-25T17:47:29.659Z,17.67
2019-01-25T17:50:00.380Z,18.17
2019-01-25T17:52:31.187Z,19.23
2019-01-25T17:55:02.108Z,17.67
2019-01-25T17:57:32.856Z,17.93
2019-01-25T18:00:04.419Z,19.07
2019-01-25T18:02:35.322Z,17.03
2019-01-25T18:05:06.486Z,16.87
2019-01-25T18:07:37.233Z,17.90
2019-01-25T18:10:10.938Z,18.10
2019-01-25T18:12:41.923Z,17.90
2019-01-25T18:15:13.527Z,18.20
2019-01-25T18:17:44.256Z,17.90
2019-01-25T18:20:16.737Z,18.83
2019-01-25T18:22:48.019Z,18.90
2019-01-25T18:25:24.874Z,17.60
2019-01-25T18:28:00.666Z,18.57
2019-01-25T18:30:37.839Z,17.57
2019-01-25T18:33:08.775Z,17.40
2019-01-25T18:35:39.614Z,16.67
2019-01-25T18:38:10.840Z,18.67
2019-01-25T18:40:41.479Z,17.37
2019-01-25T18:43:12.280Z,18.77
2019-01-25T18:45:43.065Z,18.00
2019-01-25T18:48:14.285Z,17.50
2019-01-25T18:50:45.239Z,18.63
2019-01-25T18:53:16.703Z,18.37
2019-01-25T18:55:47.490Z,17.87
2019-01-25T18:58:18.265Z,18.37
2019-01-25T19:00:49.191Z,18.57
2019-01-25T19:03:19.998Z,19.80
2019-01-25T19:05:51.426Z,18.47
2019-01-25T19:08:22.694Z,18.07
2019-01-25T19:10:53.425Z,17.53
2019-01-25T19:13:24.155Z,18.93
2019-01-25T19:15:55.006Z,16.53
2019-01-25T19:18:25.858Z,17.97
2019-01-25T19:20:56.821Z,17.43
2019-01-25T19:23:27.953Z,19.67
2019-01-25T19:25:58.738Z,17.93
2019-01-25T19:28:29.840Z,18.13
2019-01-25T19:31:00.841Z,18.30
2019-01-25T19:33:31.556Z,18.13
2019-01-25T19:36:02.343Z,18.57
2019-01-25T19:38:33.797Z,19.25
2019-01-25T19:41:05.057Z,19.17
2019-01-25T19:43:36.009Z,18.90
2019-01-25T19:46:06.862Z,20.83
2019-01-25T19:48:38.174Z,20.43
2019-01-25T19:51:10.517Z,18.85
2019-01-25T19:53:41.438Z,18.90
2019-01-25T19:56:12.192Z,17.97
2019-01-25T19:58:43.220Z,18.83
2019-01-25T20:01:14.047Z,19.10
2019-01-25T20:03:45.191Z,17.33
2019-01-25T20:06:15.928Z,17.83
2019-01-25T20:08:46.611Z,17.90
2019-01-25T20:11:17.478Z,18.20
2019-01-25T20:13:48.504Z,19.15
2019-01-25T20:16:19.694Z,18.37
2019-01-25T20:18:50.379Z,17.97
2019-01-25T20:21:21.503Z,18.53
2019-01-25T20:23:52.242Z,18.32
2019-01-25T20:26:23.381Z,18.20
2019-01-25T20:28:54.502Z,19.47
2019-01-25T20:31:25.907Z,18.80
2019-01-25T20:33:57.002Z,18.82
2019-01-25T20:36:27.938Z,20.60
2019-01-25T20:38:58.725Z,20.70
2019-01-25T20:41:29.478Z,19.92
2019-01-25T20:44:00.416Z,20.52
2019-01-25T20:46:31.249Z,19.82
2019-01-25T20:49:02.098Z,21.17
2019-01-25T20:51:32.756Z,19.47
2019-01-25T20:54:03.571Z,20.45
2019-01-25T20:56:34.317Z,22.40
2019-01-25T20:59:05.033Z,21.53
2019-01-25T21:01:35.862Z,20.07
2019-01-25T21:04:06.687Z,20.97
2019-01-25T21:06:37.742Z,20.57
2019-01-25T21:09:11.527Z,22.40
2019-01-25T21:11:42.331Z,20.07
2019-01-25T21:14:13.441Z,21.70
2019-01-25T21:16:44.581Z,23.20
2019-01-25T21:19:15.412Z,21.53
2019-01-25T21:21:46.220Z,22.83
2019-01-25T21:24:17.611Z,20.93
2019-01-25T21:26:48.325Z,22.43
2019-01-25T21:29:19.278Z,23.00
2019-01-25T21:31:50.069Z,23.53
2019-01-25T21:34:20.861Z,21.77
2019-01-25T21:36:51.507Z,23.20
2019-01-25T21:39:22.402Z,23.10
2019-01-25T21:41:53.470Z,24.07
2019-01-25T21:44:25.227Z,22.05
2019-01-25T21:46:56.817Z,24.40
2019-01-25T21:49:28.366Z,22.57
2019-01-25T21:51:59.571Z,22.80
2019-01-25T21:54:30.685Z,24.00
2019-01-25T21:57:02.098Z,23.06
2019-01-25T21:59:33.362Z,24.17
2019-01-25T22:02:04.430Z,23.37
2019-01-25T22:04:35.928Z,22.90
2019-01-25T22:07:07.132Z,23.40
2019-01-25T22:09:38.224Z,23.25
2019-01-25T22:12:09.616Z,25.27
2019-01-25T22:14:40.603Z,24.53
2019-01-25T22:17:12.141Z,25.27
2019-01-25T22:19:43.025Z,24.60
2019-01-25T22:22:14.783Z,26.95
2019-01-25T22:24:46.914Z,25.73
2019-01-25T22:27:19.031Z,24.57
2019-01-25T22:29:50.885Z,26.73
2019-01-25T22:32:33.642Z,26.35
2019-01-25T22:35:09.780Z,26.70
2019-01-25T22:37:41.656Z,26.97
2019-01-25T22:40:17.457Z,26.97
2019-01-25T22:42:49.373Z,26.30
2019-01-25T22:45:23.604Z,26.13
2019-01-25T22:47:57.386Z,26.80
2019-01-25T22:50:34.984Z,26.43
2019-01-25T22:53:07.350Z,25.70
2019-01-25T22:55:38.366Z,25.82
2019-01-25T22:58:09.554Z,26.12
2019-01-25T23:00:59.936Z,27.80
2019-01-25T23:04:23.704Z,26.80
2019-01-25T23:07:10.097Z,26.27
2019-01-25T23:10:04.205Z,26.87
2019-01-25T23:12:36.020Z,25.40
2019-01-25T23:15:10.104Z,24.97
2019-01-25T23:17:41.471Z,26.93
2019-01-25T23:20:14.036Z,24.27
2019-01-25T23:22:45.086Z,26.33
2019-01-25T23:25:16.047Z,25.15
2019-01-25T23:27:47.200Z,25.07
2019-01-25T23:30:19.275Z,24.73
2019-01-25T23:32:50.028Z,26.17
2019-01-25T23:35:20.824Z,26.93
2019-01-25T23:37:51.505Z,25.23
2019-01-25T23:40:22.293Z,25.77
2019-01-25T23:42:53.317Z,25.53
2019-01-25T23:45:24.328Z,25.80
2019-01-25T23:47:55.369Z,26.73
2019-01-25T23:50:27.014Z,26.73
2019-01-25T23:52:59.281Z,26.20
2019-01-25T23:55:30.456Z,28.17
2019-01-25T23:58:02.167Z,26.37
